Time;durP1;ratioP1;P1;durP2;ratioP2;P2;SDS_P1;SDS_P2;PMS_P1;PMS_P2;Temp;Humidity;BMP_temperature;BMP_pressure;BME280_temperature;BME280_humidity;BME280_pressure;Samples;Min_cycle;Max_cycle;Signal;HPM_P1;HPM_P2
2022/08/24 00:01:18;;;;;;;46.90;26.77;;;18.80;99.90;;;;;;8344669;28;20195;-69
2022/08/24 00:05:22;;;;;;;53.17;27.73;;;18.70;99.90;;;;;;8352898;28;20209;-69
2022/08/24 00:09:23;;;;;;;40.83;24.33;;;18.80;99.90;;;;;;8354626;28;20269;-69
2022/08/24 00:13:24;;;;;;;36.27;25.00;;;18.80;99.90;;;;;;8352781;28;20208;-69
2022/08/24 00:17:25;;;;;;;40.13;26.83;;;18.80;99.90;;;;;;8348591;28;20206;-69
2022/08/24 00:21:26;;;;;;;48.17;26.37;;;18.80;99.90;;;;;;8350860;28;20443;-69
2022/08/24 00:25:27;;;;;;;52.87;27.03;;;18.80;99.90;;;;;;8348881;28;20383;-69
2022/08/24 00:29:28;;;;;;;40.03;24.33;;;18.70;99.90;;;;;;8348584;28;20300;-72
2022/08/24 00:33:29;;;;;;;52.33;27.57;;;18.80;99.90;;;;;;8352134;28;20450;-70
2022/08/24 00:37:30;;;;;;;35.37;24.37;;;18.70;99.90;;;;;;8351355;28;20185;-69
2022/08/24 00:41:31;;;;;;;41.53;26.00;;;18.70;99.90;;;;;;8346544;28;20273;-70
2022/08/24 00:45:41;;;;;;;37.27;25.17;;;18.70;99.90;;;;;;8348550;28;20210;-70
2022/08/24 00:49:56;;;;;;;33.73;23.57;;;18.70;99.90;;;;;;8345936;28;20182;-69
2022/08/24 00:54:11;;;;;;;26.90;21.33;;;18.70;99.90;;;;;;8348891;28;20192;-69
2022/08/24 00:58:15;;;;;;;23.90;17.83;;;18.70;99.90;;;;;;8348580;28;20217;-69
2022/08/24 01:02:20;;;;;;;27.53;20.03;;;18.70;99.90;;;;;;8341696;28;20245;-69
2022/08/24 01:06:21;;;;;;;19.47;15.83;;;18.70;99.90;;;;;;8346253;28;20181;-69
2022/08/24 01:10:26;;;;;;;23.57;18.10;;;18.70;99.90;;;;;;8348083;28;20280;-69
2022/08/24 01:14:27;;;;;;;37.23;23.20;;;18.70;99.90;;;;;;8330316;28;20252;-69
2022/08/24 01:22:56;;;;;;;33.30;24.00;;;18.60;99.90;;;;;;8347137;28;20225;-69
2022/08/24 01:26:58;;;;;;;36.63;25.10;;;18.60;99.90;;;;;;8348647;28;20281;-69
2022/08/24 01:30:59;;;;;;;33.03;22.83;;;18.60;99.90;;;;;;8348033;28;20201;-69
2022/08/24 01:35:00;;;;;;;21.33;16.97;;;18.50;99.90;;;;;;8347925;28;20273;-69
2022/08/24 01:39:09;;;;;;;34.10;23.60;;;18.40;99.90;;;;;;8341137;28;20278;-70
2022/08/24 01:43:11;;;;;;;34.87;23.27;;;18.50;99.90;;;;;;8348424;28;20202;-69
2022/08/24 01:47:14;;;;;;;22.57;18.93;;;18.50;99.90;;;;;;8346011;28;20212;-69
2022/08/24 01:51:15;;;;;;;19.20;15.93;;;18.40;99.90;;;;;;8346731;28;20195;-69
2022/08/24 01:55:16;;;;;;;20.37;16.77;;;18.40;99.90;;;;;;8354147;28;20185;-69
2022/08/24 01:59:18;;;;;;;17.63;14.40;;;18.40;99.90;;;;;;8346327;28;20217;-69
2022/08/24 02:03:19;;;;;;;15.40;13.80;;;18.40;99.90;;;;;;8343325;28;20241;-68
2022/08/24 02:07:20;;;;;;;14.57;13.07;;;18.40;99.90;;;;;;8344146;28;20182;-69
2022/08/24 02:11:21;;;;;;;13.93;12.53;;;18.30;99.90;;;;;;8346853;28;20202;-69
2022/08/24 02:15:40;;;;;;;15.30;13.27;;;18.30;99.90;;;;;;8344371;28;20177;-72
2022/08/24 02:19:41;;;;;;;24.33;20.23;;;18.20;99.90;;;;;;8347015;28;20194;-68
2022/08/24 02:23:42;;;;;;;26.77;20.83;;;18.20;99.90;;;;;;8344817;28;20237;-69
2022/08/24 02:27:43;;;;;;;28.87;21.93;;;18.20;99.90;;;;;;8344380;28;20200;-69
2022/08/24 02:31:44;;;;;;;30.73;22.40;;;18.20;99.90;;;;;;8346018;28;20197;-69
2022/08/24 02:35:45;;;;;;;38.63;25.10;;;18.10;99.90;;;;;;8344640;28;20236;-69
2022/08/24 02:39:46;;;;;;;36.30;25.20;;;18.10;99.90;;;;;;8348778;28;20246;-68
2022/08/24 02:43:47;;;;;;;44.30;27.40;;;18.10;99.90;;;;;;8349746;28;20285;-69
2022/08/24 02:47:48;;;;;;;42.33;27.80;;;18.20;99.90;;;;;;8350508;28;20205;-69
2022/08/24 02:51:49;;;;;;;35.50;25.10;;;18.20;99.90;;;;;;8349634;28;20567;-69
2022/08/24 02:55:50;;;;;;;41.13;27.23;;;18.10;99.90;;;;;;8354069;28;20591;-70
2022/08/24 02:59:51;;;;;;;44.20;28.10;;;18.10;99.90;;;;;;8353700;28;20186;-69
2022/08/24 03:03:52;;;;;;;32.57;23.23;;;18.10;99.90;;;;;;8347531;28;20237;-70
2022/08/24 03:07:52;;;;;;;35.83;25.70;;;18.10;99.90;;;;;;8352793;28;20212;-70
2022/08/24 03:11:54;;;;;;;39.50;25.20;;;18.00;99.90;;;;;;8347154;28;20210;-70
2022/08/24 03:15:55;;;;;;;36.63;25.43;;;18.00;99.90;;;;;;8350139;28;20200;-69
2022/08/24 03:19:56;;;;;;;37.27;26.40;;;18.00;99.90;;;;;;8348354;28;20182;-69
2022/08/24 03:23:57;;;;;;;34.90;25.77;;;18.00;99.90;;;;;;8351870;28;20214;-69
2022/08/24 03:27:58;;;;;;;32.07;24.13;;;18.00;99.90;;;;;;8353883;28;20219;-70
2022/08/24 03:31:58;;;;;;;36.10;25.60;;;18.00;99.90;;;;;;8347474;28;20268;-70
2022/08/24 03:36:03;;;;;;;34.80;26.17;;;18.10;99.90;;;;;;8349825;28;20186;-69
2022/08/24 03:40:06;;;;;;;34.13;24.77;;;18.10;99.90;;;;;;8333343;28;20193;-70
2022/08/24 03:44:07;;;;;;;34.50;25.87;;;18.00;99.90;;;;;;8350437;28;20216;-69
2022/08/24 03:48:07;;;;;;;35.10;26.00;;;18.00;99.90;;;;;;8345767;28;20611;-70
2022/08/24 03:52:08;;;;;;;34.17;25.77;;;18.00;99.90;;;;;;8343148;28;20235;-69
2022/08/24 03:56:09;;;;;;;38.97;26.33;;;18.00;99.90;;;;;;8345301;28;20186;-70
2022/08/24 04:00:12;;;;;;;32.47;25.80;;;18.10;99.90;;;;;;8363193;28;20181;-69
2022/08/24 04:04:13;;;;;;;26.07;22.70;;;18.10;99.90;;;;;;8350868;28;20666;-70
2022/08/24 04:08:14;;;;;;;17.90;16.07;;;18.10;99.90;;;;;;8346310;28;20187;-70
2022/08/24 04:12:14;;;;;;;18.43;16.17;;;18.10;99.90;;;;;;8350705;28;20213;-70
2022/08/24 04:16:20;;;;;;;16.57;14.77;;;18.20;99.90;;;;;;8349317;28;20217;-70
2022/08/24 04:20:21;;;;;;;15.43;13.87;;;18.30;99.90;;;;;;8351337;28;20249;-70
2022/08/24 04:24:22;;;;;;;15.53;13.80;;;18.30;99.90;;;;;;8348490;28;20205;-70
2022/08/24 04:28:23;;;;;;;15.20;13.60;;;18.30;99.90;;;;;;8367999;28;20184;-70
2022/08/24 04:32:24;;;;;;;15.73;14.13;;;18.40;99.90;;;;;;8351116;28;20186;-70
2022/08/24 04:36:24;;;;;;;17.70;15.90;;;18.40;99.90;;;;;;8348452;28;20185;-70
2022/08/24 04:40:25;;;;;;;20.13;17.97;;;18.50;99.90;;;;;;8347871;28;20201;-70
2022/08/24 04:44:26;;;;;;;22.27;19.77;;;18.50;99.90;;;;;;8348755;28;20209;-71
2022/08/24 04:48:27;;;;;;;22.00;18.47;;;18.40;99.90;;;;;;8346059;28;20383;-70
2022/08/24 04:52:28;;;;;;;26.93;22.33;;;18.50;99.90;;;;;;8344899;28;21093;-70
2022/08/24 04:56:28;;;;;;;26.03;20.97;;;18.50;99.90;;;;;;8346794;28;20228;-70
2022/08/24 05:00:30;;;;;;;24.07;19.27;;;18.50;99.90;;;;;;8351445;28;20230;-70
2022/08/24 05:04:31;;;;;;;29.97;22.30;;;18.50;99.90;;;;;;8345437;28;20217;-70
2022/08/24 05:08:32;;;;;;;24.33;18.13;;;18.50;99.90;;;;;;8349048;28;20284;-70
2022/08/24 05:12:33;;;;;;;24.93;18.43;;;18.50;99.90;;;;;;8345585;28;20237;-69
2022/08/24 05:16:36;;;;;;;35.03;24.00;;;18.70;99.90;;;;;;8348105;28;20220;-69
2022/08/24 05:20:45;;;;;;;39.23;25.37;;;18.70;99.90;;;;;;8346946;28;20209;-70
2022/08/24 05:24:46;;;;;;;39.60;26.07;;;18.80;99.90;;;;;;8346843;28;20210;-70
2022/08/24 05:28:46;;;;;;;39.93;25.27;;;18.80;99.90;;;;;;8345443;28;20181;-70
2022/08/24 05:32:48;;;;;;;25.57;18.63;;;18.90;99.90;;;;;;8344135;28;20193;-70
2022/08/24 05:36:52;;;;;;;25.93;19.10;;;19.00;99.90;;;;;;8342088;28;20190;-70
2022/08/24 05:40:53;;;;;;;38.97;24.57;;;19.20;99.90;;;;;;8343930;28;20192;-70
2022/08/24 05:44:53;;;;;;;33.20;23.30;;;19.10;99.90;;;;;;8347812;28;20425;-69
2022/08/24 05:48:56;;;;;;;33.13;22.63;;;19.10;99.90;;;;;;8351183;28;20190;-70
2022/08/24 05:52:57;;;;;;;36.50;24.03;;;19.20;99.90;;;;;;8346097;28;20190;-73
2022/08/24 05:57:03;;;;;;;24.50;19.43;;;19.40;99.90;;;;;;8344790;28;20192;-70
2022/08/24 06:01:09;;;;;;;30.40;21.87;;;19.50;99.90;;;;;;8346800;28;20272;-69
2022/08/24 06:05:10;;;;;;;27.17;22.47;;;19.60;99.90;;;;;;8345802;28;20275;-69
2022/08/24 06:09:11;;;;;;;24.00;19.80;;;19.70;99.90;;;;;;8346633;28;20212;-70
2022/08/24 06:13:13;;;;;;;22.47;19.57;;;19.80;99.90;;;;;;8347022;28;20197;-70
2022/08/24 06:17:13;;;;;;;24.70;19.57;;;19.80;99.90;;;;;;8351376;28;20205;-70
2022/08/24 06:21:17;;;;;;;23.80;19.53;;;19.60;99.90;;;;;;8349857;28;20224;-70
2022/08/24 06:29:37;;;;;;;20.93;16.93;;;19.60;99.90;;;;;;8351745;28;20193;-70
2022/08/24 06:33:38;;;;;;;20.20;17.70;;;19.80;99.90;;;;;;8349586;28;20181;-70
2022/08/24 06:37:40;;;;;;;21.83;18.50;;;19.90;99.90;;;;;;8353252;28;20212;-70
2022/08/24 06:41:41;;;;;;;24.37;19.23;;;19.80;99.90;;;;;;8350338;28;20183;-70
2022/08/24 06:45:43;;;;;;;17.07;15.37;;;19.80;99.90;;;;;;8354126;28;20273;-69
2022/08/24 06:49:44;;;;;;;21.50;17.97;;;19.70;99.90;;;;;;8348846;28;20217;-70
2022/08/24 06:53:45;;;;;;;21.43;18.27;;;19.80;99.90;;;;;;8349740;28;20186;-70
2022/08/24 06:57:47;;;;;;;20.40;16.60;;;19.80;99.90;;;;;;8353165;28;20189;-73
2022/08/24 07:01:48;;;;;;;18.53;16.53;;;19.70;99.90;;;;;;8348880;28;20189;-69
2022/08/24 07:05:54;;;;;;;17.53;15.70;;;19.80;99.90;;;;;;8348060;28;20214;-71
2022/08/24 07:09:55;;;;;;;20.63;17.37;;;20.00;99.90;;;;;;8350974;28;20236;-70
2022/08/24 07:13:56;;;;;;;20.50;17.67;;;20.00;99.90;;;;;;8349449;28;20213;-70
2022/08/24 07:17:57;;;;;;;25.03;20.30;;;19.90;99.90;;;;;;8350419;28;20217;-69
2022/08/24 07:21:58;;;;;;;23.90;19.60;;;19.70;99.90;;;;;;8349264;28;20484;-69
2022/08/24 07:26:05;;;;;;;24.27;20.00;;;19.60;99.90;;;;;;8350015;28;20237;-70
2022/08/24 07:30:07;;;;;;;25.23;21.00;;;19.50;99.90;;;;;;8365092;28;20178;-70
2022/08/24 07:34:10;;;;;;;28.77;23.10;;;19.50;99.90;;;;;;8333864;28;20507;-70
2022/08/24 07:38:11;;;;;;;29.87;22.13;;;19.60;99.90;;;;;;8351230;28;20593;-70
2022/08/24 07:42:15;;;;;;;28.33;22.17;;;19.70;99.90;;;;;;8347933;28;20194;-70
2022/08/24 07:46:16;;;;;;;25.40;21.53;;;19.80;99.90;;;;;;8355071;28;20209;-69
2022/08/24 07:50:19;;;;;;;21.97;18.70;;;20.00;99.90;;;;;;8350676;28;20265;-69
2022/08/24 07:54:20;;;;;;;24.23;20.13;;;20.20;99.90;;;;;;8333425;28;20216;-69
2022/08/24 07:58:21;;;;;;;22.47;19.73;;;20.20;99.90;;;;;;8350638;28;20276;-70
2022/08/24 08:02:22;;;;;;;25.67;21.27;;;20.20;99.90;;;;;;8348861;28;20185;-69
2022/08/24 08:06:23;;;;;;;23.80;20.63;;;20.10;99.90;;;;;;8348269;28;20185;-70
2022/08/24 08:10:24;;;;;;;27.17;20.67;;;20.10;99.90;;;;;;8345976;28;20177;-75
2022/08/24 08:14:25;;;;;;;25.00;21.73;;;20.10;99.90;;;;;;8334442;28;20202;-71
2022/08/24 08:18:26;;;;;;;30.50;21.50;;;20.10;99.90;;;;;;8346534;28;20219;-69
2022/08/24 08:26:51;;;;;;;24.37;19.80;;;20.20;99.90;;;;;;8349229;28;20320;-69
2022/08/24 08:30:52;;;;;;;23.47;19.37;;;20.20;99.90;;;;;;8363031;28;20193;-70
2022/08/24 08:34:53;;;;;;;23.40;19.27;;;20.30;99.90;;;;;;8348495;28;20185;-70
2022/08/24 08:38:55;;;;;;;26.73;19.43;;;20.30;99.90;;;;;;8331578;28;20189;-72
2022/08/24 08:43:34;;;;;;;24.90;19.17;;;20.40;99.90;;;;;;8343897;28;20206;-71
2022/08/24 08:47:47;;;;;;;27.23;20.93;;;20.40;99.90;;;;;;8380941;28;20193;-70
2022/08/24 08:52:45;;;;;;;28.87;19.70;;;20.30;99.90;;;;;;8345665;28;20186;-69
2022/08/24 08:57:10;;;;;;;31.07;22.63;;;20.20;99.90;;;;;;8308528;28;20296;-70
2022/08/24 09:01:47;;;;;;;28.73;21.80;;;20.30;99.90;;;;;;8333349;28;20313;-69
2022/08/24 09:06:00;;;;;;;31.27;21.47;;;20.30;99.90;;;;;;8346487;28;20209;-69
2022/08/24 09:10:22;;;;;;;28.90;22.27;;;20.40;99.90;;;;;;8354393;28;20205;-72
2022/08/24 09:14:29;;;;;;;30.93;22.97;;;20.40;99.90;;;;;;8365879;28;20292;-70
2022/08/24 09:19:07;;;;;;;36.07;24.50;;;20.50;99.90;;;;;;8347355;28;20194;-69
2022/08/24 09:23:44;;;;;;;31.80;23.97;;;20.60;99.90;;;;;;8347913;28;20549;-70
2022/08/24 09:28:12;;;;;;;30.50;22.43;;;21.00;99.90;;;;;;8362767;28;20185;-69
2022/08/24 09:32:33;;;;;;;30.00;23.07;;;20.90;99.90;;;;;;8342912;28;20224;-70
2022/08/24 09:36:46;;;;;;;29.77;21.10;;;20.90;99.90;;;;;;8348839;28;20186;-69
2022/08/24 09:41:09;;;;;;;31.40;22.50;;;20.70;99.90;;;;;;8345193;28;20293;-70
2022/08/24 09:45:39;;;;;;;35.23;22.70;;;20.60;99.90;;;;;;8378008;28;20201;-70
2022/08/24 09:49:58;;;;;;;29.70;21.70;;;20.50;99.90;;;;;;8343777;28;20197;-69
2022/08/24 09:54:17;;;;;;;30.13;22.77;;;20.60;99.90;;;;;;8346381;28;20186;-70
2022/08/24 09:58:53;;;;;;;34.23;24.93;;;20.60;99.90;;;;;;8347446;28;20190;-69
2022/08/24 10:03:21;;;;;;;36.63;25.43;;;20.50;99.90;;;;;;8343392;28;20209;-70
2022/08/24 10:07:37;;;;;;;31.10;22.90;;;20.40;99.90;;;;;;8347277;28;20178;-70
2022/08/24 10:12:06;;;;;;;32.43;24.10;;;20.50;99.90;;;;;;8347138;28;20198;-69
2022/08/24 10:16:22;;;;;;;29.70;22.37;;;20.50;99.90;;;;;;8347711;28;20272;-70
2022/08/24 10:20:59;;;;;;;31.50;23.67;;;20.60;99.90;;;;;;8348334;28;20541;-69
2022/08/24 10:25:18;;;;;;;36.93;25.30;;;20.60;99.90;;;;;;8345691;28;20216;-71
2022/08/24 10:29:54;;;;;;;33.17;24.47;;;20.60;99.90;;;;;;8344930;28;20185;-69
2022/08/24 10:34:03;;;;;;;30.97;24.20;;;20.40;99.90;;;;;;8360285;28;20186;-70
2022/08/24 10:43:34;;;;;;;29.57;21.73;;;20.50;99.90;;;;;;8345647;28;20231;-70
2022/08/24 10:47:35;;;;;;;23.17;19.83;;;20.60;99.90;;;;;;8353944;28;20182;-71
2022/08/24 10:51:39;;;;;;;28.50;19.73;;;20.70;99.90;;;;;;8342184;28;20178;-69
2022/08/24 10:55:41;;;;;;;20.50;18.00;;;20.90;99.90;;;;;;8340105;28;20209;-70
2022/08/24 11:00:04;;;;;;;23.30;18.10;;;21.20;99.90;;;;;;8342056;28;20243;-69
2022/08/24 11:04:12;;;;;;;20.07;17.23;;;21.60;99.90;;;;;;8346440;28;20240;-70
2022/08/24 11:08:33;;;;;;;19.70;15.93;;;21.70;99.90;;;;;;8367119;28;20178;-70
2022/08/24 11:12:44;;;;;;;19.90;16.50;;;21.70;99.90;;;;;;8349389;28;20320;-69
2022/08/24 11:16:46;;;;;;;17.80;14.83;;;21.70;99.90;;;;;;8364931;28;20263;-73
2022/08/24 11:20:50;;;;;;;21.73;16.03;;;21.80;99.90;;;;;;8353913;28;20182;-70
2022/08/24 11:24:58;;;;;;;17.67;13.20;;;21.90;99.90;;;;;;8349429;28;20224;-69
2022/08/24 11:29:00;;;;;;;20.70;14.80;;;21.80;99.90;;;;;;8348216;28;20257;-70
2022/08/24 11:33:05;;;;;;;19.57;14.50;;;21.80;99.90;;;;;;8345561;28;20190;-69
2022/08/24 11:37:13;;;;;;;14.60;12.80;;;21.70;99.90;;;;;;8346172;28;20186;-70
2022/08/24 11:41:27;;;;;;;13.97;11.23;;;22.00;99.90;;;;;;8366046;28;20217;-70
2022/08/24 11:45:41;;;;;;;12.90;11.63;;;22.10;99.90;;;;;;8346469;28;20209;-70
2022/08/24 11:49:58;;;;;;;11.10;10.00;;;22.30;99.90;;;;;;8342890;28;20485;-70
2022/08/24 11:54:45;;;;;;;12.80;10.53;;;22.60;99.90;;;;;;8351431;28;20268;-69
2022/08/24 11:59:19;;;;;;;9.43;8.33;;;23.00;99.90;;;;;;8345331;28;20256;-70
2022/08/24 12:03:47;;;;;;;9.87;8.87;;;23.50;99.90;;;;;;8348056;28;20208;-69
2022/08/24 12:08:20;;;;;;;8.20;7.40;;;23.70;99.90;;;;;;8343565;28;20483;-70
2022/08/24 12:12:34;;;;;;;8.80;7.88;;;24.00;99.90;;;;;;8375015;28;20197;-70
2022/08/24 12:16:52;;;;;;;10.75;7.50;;;24.20;99.90;;;;;;8353782;28;20186;-70
2022/08/24 12:20:55;;;;;;;11.88;7.57;;;24.30;99.90;;;;;;8335220;28;20190;-70
2022/08/24 12:25:00;;;;;;;8.75;7.85;;;24.40;99.90;;;;;;8350282;28;20211;-69
2022/08/24 12:29:14;;;;;;;11.73;8.88;;;24.50;99.90;;;;;;8344594;28;20251;-70
2022/08/24 12:33:27;;;;;;;13.50;9.40;;;24.50;99.90;;;;;;8359998;28;20178;-71
2022/08/24 12:37:39;;;;;;;8.95;8.07;;;24.60;73.10;;;;;;8339693;28;20202;-71
2022/08/24 12:42:10;;;;;;;9.50;8.45;;;24.90;1.00;;;;;;8344777;28;20181;-71
2022/08/24 12:46:16;;;;;;;14.25;9.90;;;25.20;99.90;;;;;;8345014;28;20209;-71
2022/08/24 12:50:37;;;;;;;10.57;9.52;;;25.40;99.90;;;;;;8353777;28;20209;-70
2022/08/24 12:55:19;;;;;;;15.07;11.65;;;25.50;47.40;;;;;;8341259;28;20233;-70
2022/08/24 12:59:29;;;;;;;13.23;10.57;;;25.40;99.90;;;;;;8375776;28;20269;-71
2022/08/24 13:03:40;;;;;;;11.13;10.13;;;25.20;99.90;;;;;;8345666;28;20692;-70
2022/08/24 13:07:45;;;;;;;11.80;10.65;;;25.00;99.90;;;;;;8346060;28;20225;-71
2022/08/24 13:11:46;;;;;;;11.05;9.73;;;24.80;99.90;;;;;;8353180;28;20205;-70
2022/08/24 13:15:47;;;;;;;11.45;10.35;;;24.80;99.90;;;;;;8346506;28;20196;-70
2022/08/24 13:20:19;;;;;;;11.82;10.65;;;24.80;99.90;;;;;;8346292;28;20292;-70
2022/08/24 13:24:29;;;;;;;13.88;10.40;;;24.70;99.90;;;;;;8348169;28;20242;-70
2022/08/24 13:28:38;;;;;;;12.18;11.00;;;24.70;99.90;;;;;;8349184;28;20196;-71
2022/08/24 13:32:45;;;;;;;13.18;11.23;;;24.80;99.90;;;;;;8346007;28;20182;-70
2022/08/24 13:37:14;;;;;;;14.32;12.25;;;24.80;99.90;;;;;;8355641;28;20200;-71
2022/08/24 13:41:43;;;;;;;13.07;11.88;;;24.90;99.90;;;;;;8345510;28;20201;-71
2022/08/24 13:45:55;;;;;;;14.35;12.95;;;24.90;99.90;;;;;;8344407;28;20206;-71
2022/08/24 13:50:08;;;;;;;12.07;11.05;;;24.80;99.90;;;;;;8346570;28;20185;-73
2022/08/24 13:54:37;;;;;;;13.40;11.60;;;24.90;99.90;;;;;;8349183;28;20186;-71
2022/08/24 13:58:49;;;;;;;12.55;10.82;;;25.00;99.90;;;;;;8336727;28;20260;-71
2022/08/24 14:02:57;;;;;;;12.60;10.88;;;25.10;99.90;;;;;;8344701;28;20205;-72
2022/08/24 14:07:13;;;;;;;12.82;10.27;;;25.20;99.90;;;;;;8346483;28;20177;-70
2022/08/24 14:11:47;;;;;;;12.18;10.60;;;25.30;99.90;;;;;;8345729;28;20221;-71
2022/08/24 14:17:50;;;;;;;11.75;8.90;;;25.70;34.20;;;;;;8326269;28;20196;-71
2022/08/24 14:20:17;;;;;;;10.13;9.18;;;25.80;1.00;;;;;;8349026;28;20217;-70
2022/08/24 14:24:44;;;;;;;12.23;9.65;;;25.80;1.00;;;;;;8344956;28;20225;-72
2022/08/24 14:28:45;;;;;;;11.65;9.52;;;26.10;1.00;;;;;;8342490;28;20190;-70
2022/08/24 14:33:03;;;;;;;10.02;8.73;;;26.50;1.00;;;;;;8345350;28;20185;-71
2022/08/24 14:37:13;;;;;;;9.80;8.77;;;26.60;1.00;;;;;;8351395;28;20228;-72
2022/08/24 14:41:37;;;;;;;10.85;7.95;;;26.50;99.90;;;;;;8353802;28;20293;-70
2022/08/24 14:45:38;;;;;;;10.82;9.73;;;26.60;99.90;;;;;;8385250;28;20292;-71
2022/08/24 14:50:05;;;;;;;9.25;8.35;;;26.80;99.90;;;;;;8344958;28;20180;-71
2022/08/24 14:54:40;;;;;;;9.25;8.35;;;26.90;99.90;;;;;;8356568;28;20245;-70
2022/08/24 14:59:10;;;;;;;9.07;8.05;;;26.80;99.90;;;;;;8355730;28;20182;-71
2022/08/24 15:03:49;;;;;;;9.55;8.65;;;26.70;99.90;;;;;;8345798;28;20214;-71
2022/08/24 15:08:34;;;;;;;13.10;8.13;;;26.60;1.00;;;;;;8344399;28;20194;-71
2022/08/24 15:12:46;;;;;;;9.95;9.05;;;26.60;1.00;;;;;;8338301;28;20206;-70
2022/08/24 15:17:00;;;;;;;10.48;8.93;;;26.80;99.90;;;;;;8351847;28;20221;-70
2022/08/24 15:21:22;;;;;;;8.32;7.40;;;27.00;99.90;;;;;;8383786;28;20178;-70
2022/08/24 15:25:29;;;;;;;10.30;8.05;;;27.10;99.90;;;;;;8366934;28;20197;-67
2022/08/24 15:29:33;;;;;;;10.73;9.13;;;27.10;99.90;;;;;;8357194;28;20189;-70
2022/08/24 15:33:50;;;;;;;9.02;8.20;;;26.90;1.00;;;;;;8349920;28;20182;-71
2022/08/24 15:37:51;;;;;;;9.88;8.88;;;26.80;1.00;;;;;;8366416;28;20182;-72
2022/08/24 15:41:52;;;;;;;11.10;9.45;;;26.60;1.00;;;;;;8350503;28;20194;-70
2022/08/24 15:45:54;;;;;;;9.27;8.35;;;26.50;1.00;;;;;;8359349;28;20264;-70
2022/08/24 15:50:00;;;;;;;9.23;7.97;;;26.80;1.00;;;;;;8361841;28;20197;-70
2022/08/24 15:54:22;;;;;;;8.80;7.85;;;27.10;1.00;;;;;;8349587;28;20212;-69
2022/08/24 15:58:37;;;;;;;9.55;6.80;;;27.30;99.90;;;;;;8351035;28;20194;-70
2022/08/24 16:02:38;;;;;;;10.57;7.32;;;27.10;99.90;;;;;;8352493;28;20174;-69
2022/08/24 16:06:46;;;;;;;9.68;7.45;;;26.70;99.90;;;;;;8354572;28;20257;-70
2022/08/24 16:10:54;;;;;;;13.10;8.68;;;26.40;99.90;;;;;;8353073;28;20189;-70
2022/08/24 16:15:18;;;;;;;8.23;7.22;;;26.00;99.90;;;;;;8352631;28;20495;-71
2022/08/24 16:19:35;;;;;;;9.18;8.27;;;25.60;1.00;;;;;;8354294;28;20201;-70
2022/08/24 16:23:36;;;;;;;8.27;7.40;;;25.40;8.10;;;;;;8356569;28;20237;-69
2022/08/24 16:28:08;;;;;;;8.38;7.30;;;25.30;99.90;;;;;;8344975;28;20204;-69
2022/08/24 16:32:12;;;;;;;8.63;7.82;;;25.30;99.90;;;;;;8346751;28;20189;-70
2022/08/24 16:36:16;;;;;;;8.43;7.72;;;25.30;99.90;;;;;;8348526;28;20520;-70
2022/08/24 16:40:18;;;;;;;8.40;7.60;;;25.30;99.90;;;;;;8358772;28;20181;-70
2022/08/24 16:44:19;;;;;;;8.68;7.85;;;25.30;99.90;;;;;;8347240;28;20197;-70
2022/08/24 16:48:20;;;;;;;9.40;8.50;;;25.20;99.90;;;;;;8347111;28;20264;-70
2022/08/24 16:52:21;;;;;;;9.52;8.60;;;25.20;99.90;;;;;;8347312;28;20235;-70
2022/08/24 16:56:22;;;;;;;9.77;8.80;;;25.10;1.00;;;;;;8347717;28;20247;-70
2022/08/24 17:00:23;;;;;;;8.73;7.85;;;25.00;1.00;;;;;;8345077;28;20527;-70
2022/08/24 17:04:24;;;;;;;9.52;8.27;;;24.90;1.00;;;;;;8346123;28;20209;-70
2022/08/24 17:08:29;;;;;;;8.43;7.63;;;24.80;1.00;;;;;;8345563;28;20178;-69
2022/08/24 17:12:30;;;;;;;7.70;6.93;;;24.70;1.00;;;;;;8347091;28;20335;-70
2022/08/24 17:16:31;;;;;;;7.80;7.10;;;24.60;83.50;;;;;;8359346;28;20259;-69
2022/08/24 17:20:33;;;;;;;8.93;8.05;;;24.50;99.90;;;;;;8349369;28;20224;-71
2022/08/24 17:24:34;;;;;;;9.02;7.90;;;24.30;99.90;;;;;;8345889;28;20286;-70
2022/08/24 17:28:41;;;;;;;15.30;12.45;;;24.20;99.90;;;;;;8347755;28;20208;-70
2022/08/24 17:32:42;;;;;;;234.00;78.00;;;23.80;99.90;;;;;;8346267;28;20224;-70
2022/08/24 17:36:44;;;;;;;105.30;42.50;;;23.40;99.90;;;;;;8342909;28;20179;-71
2022/08/24 17:40:45;;;;;;;36.72;19.25;;;23.00;1.00;;;;;;8342295;28;20178;-70
2022/08/24 17:44:45;;;;;;;18.33;12.13;;;22.80;99.90;;;;;;8343854;28;20275;-70
2022/08/24 17:48:47;;;;;;;12.03;10.40;;;22.60;1.00;;;;;;8347372;28;20269;-70
2022/08/24 17:52:48;;;;;;;9.87;8.70;;;22.40;99.90;;;;;;8342716;28;20269;-70
2022/08/24 17:56:50;;;;;;;11.47;9.17;;;22.20;99.90;;;;;;8344567;28;20196;-70
2022/08/24 18:00:50;;;;;;;9.90;8.97;;;21.90;1.00;;;;;;8341781;28;20192;-70
2022/08/24 18:04:51;;;;;;;10.23;9.23;;;21.70;99.90;;;;;;8342001;28;20225;-70
2022/08/24 18:08:55;;;;;;;11.30;10.20;;;21.50;1.00;;;;;;8344895;28;20267;-72
2022/08/24 18:12:57;;;;;;;11.33;10.20;;;21.30;99.90;;;;;;8349876;28;20198;-70
2022/08/24 18:17:01;;;;;;;11.07;9.97;;;21.30;99.90;;;;;;8348158;28;20204;-69
2022/08/24 18:21:02;;;;;;;10.07;9.17;;;21.10;99.90;;;;;;8347403;28;20197;-70
2022/08/24 18:25:03;;;;;;;10.07;9.13;;;20.90;99.90;;;;;;8349447;28;20484;-69
2022/08/24 18:29:16;;;;;;;9.90;9.00;;;20.70;99.90;;;;;;8348638;28;20182;-70
2022/08/24 18:33:17;;;;;;;10.80;9.37;;;20.50;99.90;;;;;;8346300;28;20186;-70
2022/08/24 18:37:18;;;;;;;9.90;9.10;;;20.40;99.90;;;;;;8350254;28;20302;-75
2022/08/24 18:41:20;;;;;;;10.53;9.60;;;20.20;99.90;;;;;;8350301;28;20178;-72
2022/08/24 18:45:21;;;;;;;11.07;10.07;;;20.10;99.90;;;;;;8349973;28;20209;-69
2022/08/24 18:49:22;;;;;;;9.33;8.53;;;20.00;99.90;;;;;;8348440;28;20189;-69
2022/08/24 18:53:26;;;;;;;10.37;9.47;;;19.90;99.90;;;;;;8348271;28;20185;-70
2022/08/24 18:57:27;;;;;;;9.83;8.93;;;19.80;99.90;;;;;;8348724;28;20252;-69
2022/08/24 19:01:28;;;;;;;9.77;8.97;;;19.70;99.90;;;;;;8346041;28;20178;-69
2022/08/24 19:05:32;;;;;;;10.93;9.83;;;19.60;99.90;;;;;;8347917;28;20335;-69
2022/08/24 19:09:33;;;;;;;11.30;10.23;;;19.50;99.90;;;;;;8358249;28;20684;-69
2022/08/24 19:13:36;;;;;;;11.87;10.77;;;19.40;99.90;;;;;;8351182;28;20275;-71
2022/08/24 19:17:37;;;;;;;11.93;10.80;;;19.30;99.90;;;;;;8346578;28;20229;-71
2022/08/24 19:21:40;;;;;;;14.33;12.80;;;19.20;99.90;;;;;;8349012;28;20253;-69
2022/08/24 19:25:44;;;;;;;11.90;10.77;;;19.10;99.90;;;;;;8347712;28;20197;-69
2022/08/24 19:29:45;;;;;;;11.80;10.60;;;19.00;99.90;;;;;;8347593;28;20190;-69
2022/08/24 19:33:46;;;;;;;12.40;11.20;;;18.90;99.90;;;;;;8345391;28;20308;-70
2022/08/24 19:37:48;;;;;;;12.70;11.40;;;18.80;99.90;;;;;;8378497;28;20194;-69
2022/08/24 19:41:50;;;;;;;12.27;11.10;;;18.70;99.90;;;;;;8349921;28;20186;-69
2022/08/24 19:46:09;;;;;;;11.73;10.63;;;18.70;99.90;;;;;;8346124;28;20213;-69
2022/08/24 19:50:11;;;;;;;12.63;11.43;;;18.60;99.90;;;;;;8344276;28;20291;-70
2022/08/24 19:54:11;;;;;;;12.93;11.73;;;18.60;99.90;;;;;;8350218;28;20193;-69
2022/08/24 19:58:41;;;;;;;13.03;11.83;;;18.50;99.90;;;;;;8347263;28;20205;-70
2022/08/24 20:02:50;;;;;;;12.83;11.63;;;18.50;99.90;;;;;;8322933;28;20199;-70
2022/08/24 20:06:52;;;;;;;14.27;12.77;;;18.50;99.90;;;;;;8355532;28;20197;-71
2022/08/24 20:10:57;;;;;;;14.67;13.17;;;18.40;99.90;;;;;;8345240;28;20186;-69
2022/08/24 20:14:58;;;;;;;14.17;12.67;;;18.40;99.90;;;;;;8341520;28;20181;-70
2022/08/24 20:19:00;;;;;;;14.63;13.23;;;18.50;99.90;;;;;;8345217;28;20303;-70
2022/08/24 20:23:04;;;;;;;12.67;11.47;;;18.60;99.90;;;;;;8345207;28;20192;-70
2022/08/24 20:27:05;;;;;;;12.97;11.67;;;18.60;99.90;;;;;;8341739;28;20190;-70
2022/08/24 20:31:08;;;;;;;13.73;12.43;;;18.70;99.90;;;;;;8347508;28;20217;-70
2022/08/24 20:35:09;;;;;;;13.97;12.67;;;18.60;99.90;;;;;;8343877;28;20212;-70
2022/08/24 20:39:12;;;;;;;14.27;12.87;;;18.60;99.90;;;;;;8344173;28;20223;-69
2022/08/24 20:43:13;;;;;;;16.70;14.80;;;18.50;99.90;;;;;;8342359;28;20202;-71
2022/08/24 20:47:15;;;;;;;15.73;14.13;;;18.50;99.90;;;;;;8344654;28;20192;-70
2022/08/24 20:51:16;;;;;;;14.40;12.90;;;18.40;99.90;;;;;;8342628;28;20190;-70
2022/08/24 20:55:18;;;;;;;14.40;12.90;;;18.30;99.90;;;;;;8343664;28;20240;-70
2022/08/24 20:59:19;;;;;;;15.13;13.67;;;18.20;99.90;;;;;;8359813;28;20215;-69
2022/08/24 21:03:20;;;;;;;13.20;11.90;;;18.10;99.90;;;;;;8341638;28;20209;-70
2022/08/24 21:07:21;;;;;;;14.07;12.67;;;18.10;99.90;;;;;;8341917;28;20192;-70
2022/08/24 21:11:22;;;;;;;15.40;14.00;;;18.00;99.90;;;;;;8343401;28;20207;-70
2022/08/24 21:15:23;;;;;;;14.83;13.20;;;18.00;99.90;;;;;;8347046;28;20186;-70
2022/08/24 21:19:24;;;;;;;13.27;12.03;;;17.90;99.90;;;;;;8343448;28;20254;-70